• Join FlightAware (Why Join?)
  • Login
  • US Flag 
05:26PM EDT


 

Airport Tracker/Info


-or-


 

Live Flight TrackerFlight Track Log ✈ N33819 ✈ 08-Sep-2013 ✈ KCGI - KDNV

Flight Track Log - Related Links

Times and Time Zones

All times are in EDT time to prevent confusion due to time zone crossing. See the N33819 flight status page for this flight to view local times or setup timezone preferences in your user account.

Time Position Orientation Groundspeed Altitude Reporting Facility
EDT Latitude Longitude Course Direction KTS MPH feet Rate Location/Type
12:47AM 37.3325 -89.5406 46° Northeast 138 159 3,800  Level Kansas City Center
12:48AM 37.3594 -89.5058 46° Northeast 139 160 4,600 720 Climbing Kansas City Center
12:49AM 37.3894 -89.4811 33° Northeast 135 155 5,300 600 Climbing Kansas City Center
12:50AM 37.4233 -89.4611 25° Northeast 134 154 5,900 540 Climbing Kansas City Center
12:51AM 37.4606 -89.4372 27° Northeast 141 162 6,400 540 Climbing Kansas City Center
12:52AM 37.4961 -89.4144 27° Northeast 143 165 7,000 240 Climbing Kansas City Center
12:53AM 37.5336 -89.3914 26° Northeast 145 167 7,000  Level Kansas City Center
12:54AM 37.5747 -89.3650 27° Northeast 154 177 7,000  Level Kansas City Center
12:55AM 37.6150 -89.3411 25° Northeast 159 183 7,000  Level Kansas City Center
12:56AM 37.6547 -89.3189 24° Northeast 158 182 7,000  Level Kansas City Center
12:57AM 37.6944 -89.2914 29° Northeast 159 183 7,000  Level Kansas City Center
12:58AM 37.7344 -89.2664 26° Northeast 160 184 7,000  Level Kansas City Center
12:59AM 37.7744 -89.2436 24° Northeast 159 183 7,000  Level Kansas City Center
01:00AM 37.8217 -89.2150 26° Northeast 157 181 7,000  Level Kansas City Center
01:01AM 37.8722 -89.1850 25° Northeast 162 186 7,000  Level Kansas City Center
01:02AM 37.9108 -89.1617 25° Northeast 156 180 7,000  Level Kansas City Center
01:03AM 37.9519 -89.1350 27° Northeast 163 188 7,000  Level Kansas City Center
01:04AM 37.9917 -89.1106 26° Northeast 161 185 7,000  Level Kansas City Center
01:05AM 38.0317 -89.0850 27° Northeast 161 185 7,000  Level Kansas City Center
01:06AM 38.0717 -89.0606 26° Northeast 160 184 7,000 -60 Level Kansas City Center
01:07AM 38.1089 -89.0378 26° Northeast 160 184 6,900 -60 Descending Kansas City Center
01:08AM 38.1486 -89.0114 28° Northeast 161 185 6,900  Level Kansas City Center
01:09AM 38.1883 -88.9842 28° Northeast 163 188 6,900  Level Kansas City Center
01:10AM 38.2250 -88.9592 28° Northeast 156 180 6,900  Level Kansas City Center
01:11AM 38.2631 -88.9339 28° Northeast 153 176 6,900  Level Kansas City Center
01:12AM 38.3022 -88.9092 26° Northeast 157 181 6,900  Level Kansas City Center
01:13AM 38.3397 -88.8853 27° Northeast 155 178 6,900  Level Kansas City Center
01:14AM 38.3814 -88.8578 27° Northeast 148 170 6,900  Level Kansas City Center
01:15AM 38.4203 -88.8342 25° Northeast 153 176 6,900  Level Kansas City Center
01:16AM 38.4586 -88.8097 27° Northeast 154 177 6,900  Level Kansas City Center
01:17AM 38.4964 -88.7861 26° Northeast 152 175 6,900  Level Kansas City Center
01:18AM 38.5364 -88.7622 25° Northeast 158 182 6,900  Level Kansas City Center
01:19AM 38.5753 -88.7375 26° Northeast 156 180 6,900  Level Kansas City Center
01:20AM 38.6072 -88.7156 28° Northeast 154 177 6,900  Level Kansas City Center
01:21AM 38.6461 -88.6897 27° Northeast 156 180 6,900  Level Kansas City Center
01:22AM 38.6828 -88.6636 29° Northeast 154 177 6,900  Level Kansas City Center
01:23AM 38.7294 -88.6339 26° Northeast 158 182 6,900  Level Kansas City Center
01:24AM 38.7686 -88.6078 27° Northeast 158 182 6,900  Level Kansas City Center
01:25AM 38.8064 -88.5831 27° Northeast 154 177 6,900  Level Kansas City Center
01:26AM 38.8450 -88.5569 28° Northeast 155 178 6,900  Level Kansas City Center
01:27AM 38.8853 -88.5300 28° Northeast 159 183 6,900  Level Kansas City Center
01:28AM 38.9244 -88.5044 27° Northeast 158 182 6,900  Level Kansas City Center
01:29AM 38.9544 -88.4839 28° Northeast 157 181 6,900  Level Kansas City Center
01:30AM 38.9933 -88.4578 28° Northeast 156 180 6,900  Level Kansas City Center
01:31AM 39.0333 -88.4303 28° Northeast 158 182 6,900  Level Kansas City Center
01:32AM 39.0722 -88.4039 28° Northeast 158 182 6,900  Level Kansas City Center
01:33AM 39.1119 -88.3750 29° Northeast 159 183 6,900  Level Kansas City Center
01:34AM 39.1508 -88.3469 29° Northeast 160 184 6,900  Level Kansas City Center
01:35AM 39.1892 -88.3211 28° Northeast 157 181 6,900  Level Kansas City Center
01:36AM 39.2278 -88.2944 28° Northeast 156 180 6,900  Level Kansas City Center
01:37AM 39.2675 -88.2678 27° Northeast 159 183 6,900  Level Kansas City Center
01:38AM 39.3067 -88.2422 27° Northeast 157 181 6,900  Level Kansas City Center
01:39AM 39.3444 -88.2164 28° Northeast 154 177 6,900  Level Kansas City Center
01:40AM 39.3864 -88.1867 29° Northeast 158 182 6,900  Level Kansas City Center
01:41AM 39.4233 -88.1606 29° Northeast 160 184 6,900  Level Kansas City Center
01:42AM 39.4597 -88.1356 28° Northeast 155 178 6,900  Level Kansas City Center
01:43AM 39.4994 -88.1047 31° Northeast 157 181 6,900  Level Kansas City Center
01:44AM 39.5381 -88.0778 28° Northeast 158 182 6,900  Level Kansas City Center
01:45AM 39.5775 -88.0544 25° Northeast 159 183 6,900  Level Kansas City Center
01:46AM 39.6169 -88.0261 29° Northeast 160 184 6,900  Level Kansas City Center
01:47AM 39.6553 -87.9989 29° Northeast 160 184 6,900  Level Kansas City Center
01:48AM 39.6944 -87.9717 28° Northeast 158 182 6,900  Level Kansas City Center
01:49AM 39.7331 -87.9447 28° Northeast 158 182 6,900  Level Kansas City Center
01:50AM 39.7714 -87.9158 30° Northeast 159 183 6,900  Level Kansas City Center
01:51AM 39.8108 -87.8886 28° Northeast 160 184 6,900  Level Kansas City Center
01:52AM 39.8486 -87.8608 29° Northeast 157 181 6,900  Level Kansas City Center